Time;durP1;ratioP1;P1;durP2;ratioP2;P2;SDS_P1;SDS_P2;PMS_P1;PMS_P2;Temp;Humidity;BMP_temperature;BMP_pressure;BME280_temperature;BME280_humidity;BME280_pressure;Samples;Min_cycle;Max_cycle;Signal;HPM_P1;HPM_P2
2023/05/16 00:00:24;;;;;;;0.10;0.10;;;;;;;13.51;100.00;99399.22;4824797;29;20053;-94
2023/05/16 00:02:50;;;;;;;0.00;0.00;;;;;;;13.43;100.00;99391.69;4822264;29;20069;-94
2023/05/16 00:05:16;;;;;;;0.00;0.00;;;;;;;13.46;100.00;99391.53;4828030;29;20053;-93
2023/05/16 00:07:43;;;;;;;0.00;0.00;;;;;;;13.39;100.00;99372.38;4825230;29;20046;-92
2023/05/16 00:10:10;;;;;;;0.00;0.00;;;;;;;13.38;100.00;99370.06;4829133;29;20050;-92
2023/05/16 00:12:36;;;;;;;0.00;0.00;;;;;;;13.37;100.00;99363.72;4843832;29;20054;-94
2023/05/16 00:15:04;;;;;;;1.20;0.77;;;;;;;13.37;100.00;99351.81;4824821;29;20571;-94
2023/05/16 00:17:29;;;;;;;0.10;0.10;;;;;;;13.29;100.00;99342.25;4844275;29;20606;-93
2023/05/16 00:19:57;;;;;;;0.43;0.43;;;;;;;13.21;100.00;99346.63;4826648;29;20133;-93
2023/05/16 00:22:24;;;;;;;0.00;0.00;;;;;;;13.22;100.00;99364.88;4824782;29;20065;-95
2023/05/16 00:24:50;;;;;;;0.10;0.10;;;;;;;13.19;100.00;99357.44;4824653;29;20052;-94
2023/05/16 00:27:15;;;;;;;0.00;0.00;;;;;;;13.17;100.00;99340.47;4826780;29;20042;-94
2023/05/16 00:29:41;;;;;;;0.40;0.30;;;;;;;13.15;100.00;99343.69;4835628;29;20279;-94
2023/05/16 00:32:07;;;;;;;0.20;0.20;;;;;;;13.04;100.00;99343.41;4826724;29;20049;-93
2023/05/16 00:34:34;;;;;;;0.05;0.05;;;;;;;13.10;100.00;99369.41;4809636;29;20033;-93
2023/05/16 00:36:59;;;;;;;0.13;0.13;;;;;;;13.10;100.00;99366.63;4822113;29;20054;-94
2023/05/16 00:39:25;;;;;;;0.00;0.00;;;;;;;13.14;100.00;99375.59;4828685;29;20060;-92
2023/05/16 00:41:51;;;;;;;0.10;0.05;;;;;;;13.13;100.00;99359.34;4819488;29;20049;-94
2023/05/16 00:44:17;;;;;;;0.05;0.05;;;;;;;13.11;100.00;99359.03;4823088;29;20046;-92
2023/05/16 00:46:42;;;;;;;0.30;0.30;;;;;;;13.08;100.00;99355.94;4845907;29;20073;-95
2023/05/16 00:49:09;;;;;;;0.20;0.20;;;;;;;13.10;100.00;99344.38;4807809;29;20503;-93
2023/05/16 00:51:35;;;;;;;0.40;0.35;;;;;;;13.02;100.00;99329.97;4820690;29;20142;-93
2023/05/16 00:54:01;;;;;;;0.00;0.00;;;;;;;13.07;100.00;99348.81;4824314;29;20046;-93
2023/05/16 00:56:27;;;;;;;0.13;0.13;;;;;;;13.02;100.00;99332.00;4825498;29;20057;-94
2023/05/16 00:58:52;;;;;;;0.00;0.00;;;;;;;13.04;100.00;99338.63;4827572;29;20042;-94
2023/05/16 01:09:21;;;;;;;0.08;0.08;;;;;;;12.89;100.00;99326.63;4857382;29;20053;-92
2023/05/16 01:11:56;;;;;;;0.40;0.35;;;;;;;13.05;100.00;99350.53;4820209;29;20045;-94
2023/05/16 01:14:24;;;;;;;0.10;0.10;;;;;;;13.03;100.00;99353.00;4845353;29;20056;-92
2023/05/16 01:17:10;;;;;;;0.00;0.00;;;;;;;12.94;100.00;99353.06;4855223;29;20090;-93
2023/05/16 01:19:51;;;;;;;0.00;0.00;;;;;;;13.08;100.00;99367.06;4845116;29;20050;-93
2023/05/16 01:22:39;;;;;;;0.10;0.10;;;;;;;13.08;100.00;99371.88;4850427;29;20049;-93
2023/05/16 01:25:55;;;;;;;0.00;0.00;;;;;;;13.04;100.00;99355.31;4822891;29;20077;-94
2023/05/16 01:28:21;;;;;;;0.52;0.52;;;;;;;13.06;100.00;99347.25;4812421;29;20049;-93
2023/05/16 01:30:50;;;;;;;0.05;0.05;;;;;;;13.02;100.00;99345.91;4820650;29;20073;-93
2023/05/16 01:33:15;;;;;;;0.10;0.10;;;;;;;13.04;100.00;99354.56;4825171;29;20125;-92
2023/05/16 01:36:06;;;;;;;0.10;0.10;;;;;;;13.03;100.00;99330.72;4837681;29;20145;-93
2023/05/16 01:38:47;;;;;;;0.05;0.05;;;;;;;13.02;100.00;99318.81;4850188;29;20537;-94
2023/05/16 01:41:20;;;;;;;0.22;0.22;;;;;;;12.98;100.00;99301.50;4810270;29;20048;-93
2023/05/16 01:43:48;;;;;;;0.10;0.10;;;;;;;12.95;100.00;99301.69;4827599;29;20072;-94
2023/05/16 01:46:20;;;;;;;0.00;0.00;;;;;;;12.98;100.00;99300.78;4827032;29;20041;-93
2023/05/16 01:48:55;;;;;;;0.10;0.10;;;;;;;12.96;100.00;99273.41;4820937;29;20051;-93
2023/05/16 01:51:21;;;;;;;0.10;0.10;;;;;;;12.91;100.00;99257.31;4824688;29;20159;-95
2023/05/16 01:53:49;;;;;;;0.20;0.20;;;;;;;12.87;100.00;99251.16;4821310;29;20519;-92
2023/05/16 01:56:15;;;;;;;0.00;0.00;;;;;;;12.83;100.00;99245.00;4850878;29;20504;-93
2023/05/16 01:58:41;;;;;;;0.00;0.00;;;;;;;12.87;100.00;99265.09;4824011;29;20081;-94
2023/05/16 02:01:07;;;;;;;0.00;0.00;;;;;;;12.89;100.00;99276.53;4833922;29;20121;-93
2023/05/16 02:03:33;;;;;;;0.10;0.10;;;;;;;12.78;100.00;99276.25;4833708;29;20081;-93
2023/05/16 02:05:58;;;;;;;0.52;0.52;;;;;;;12.63;100.00;99255.91;4838054;29;20061;-93
2023/05/16 02:08:25;;;;;;;0.00;0.00;;;;;;;12.85;100.00;99292.63;4844909;29;20045;-92
2023/05/16 02:10:51;;;;;;;0.00;0.00;;;;;;;12.76;100.00;99270.41;4840382;29;20110;-94
2023/05/16 02:13:17;;;;;;;0.00;0.00;;;;;;;12.68;100.00;99269.19;4844825;29;20410;-94
2023/05/16 02:15:43;;;;;;;0.00;0.00;;;;;;;12.69;100.00;99265.19;4841282;29;20190;-94
2023/05/16 02:18:08;;;;;;;0.00;0.00;;;;;;;12.84;100.00;99274.38;4815944;29;20026;-92
2023/05/16 02:20:34;;;;;;;0.15;0.15;;;;;;;12.81;100.00;99264.19;4835028;29;20049;-93
2023/05/16 02:23:02;;;;;;;0.00;0.00;;;;;;;12.86;100.00;99271.88;4818601;29;20042;-93
2023/05/16 02:25:28;;;;;;;0.10;0.10;;;;;;;12.84;100.00;99268.81;4832540;29;20517;-93
2023/05/16 02:27:53;;;;;;;0.08;0.08;;;;;;;12.88;100.00;99274.97;4831790;29;20456;-94
2023/05/16 02:30:19;;;;;;;0.10;0.10;;;;;;;12.87;100.00;99272.66;4817214;29;20049;-93
2023/05/16 02:32:45;;;;;;;0.00;0.00;;;;;;;12.77;100.00;99258.03;4833124;29;20053;-93
2023/05/16 02:35:14;;;;;;;0.00;0.00;;;;;;;12.83;100.00;99267.25;4834812;29;20050;-93
2023/05/16 02:37:42;;;;;;;0.08;0.08;;;;;;;12.84;100.00;99270.81;4838306;29;20050;-93
2023/05/16 02:40:18;;;;;;;0.00;0.00;;;;;;;12.82;100.00;99276.09;4856510;29;20048;-91
2023/05/16 02:42:49;;;;;;;0.40;0.40;;;;;;;12.93;100.00;99298.63;4843000;29;20107;-93
2023/05/16 02:45:15;;;;;;;0.00;0.00;;;;;;;12.74;100.00;99272.13;4842468;29;20041;-92
2023/05/16 02:47:41;;;;;;;0.38;0.38;;;;;;;12.62;100.00;99246.00;4855704;29;20033;-91
2023/05/16 02:50:07;;;;;;;0.20;0.20;;;;;;;12.93;100.00;99293.06;4837434;29;20042;-91
2023/05/16 02:52:33;;;;;;;0.00;0.00;;;;;;;12.92;100.00;99289.50;4827964;29;20052;-91
2023/05/16 02:54:59;;;;;;;0.00;0.00;;;;;;;12.87;100.00;99276.22;4846850;29;20042;-91
2023/05/16 02:57:24;;;;;;;0.65;0.55;;;;;;;12.84;100.00;99268.03;4832223;29;20475;-91
2023/05/16 02:59:50;;;;;;;0.08;0.08;;;;;;;12.87;100.00;99272.66;4824984;29;20662;-92
2023/05/16 03:02:15;;;;;;;0.38;0.35;;;;;;;12.80;100.00;99257.09;4826989;29;20050;-92
2023/05/16 03:04:41;;;;;;;0.22;0.22;;;;;;;12.83;100.00;99266.50;4823105;29;20130;-91
2023/05/16 03:07:07;;;;;;;0.00;0.00;;;;;;;12.64;100.00;99251.91;4840670;29;20481;-90
2023/05/16 03:09:33;;;;;;;0.10;0.10;;;;;;;12.66;100.00;99262.56;4819517;29;20057;-90
2023/05/16 03:11:58;;;;;;;0.10;0.10;;;;;;;12.79;100.00;99290.94;4838491;29;20049;-91
2023/05/16 03:14:24;;;;;;;0.38;0.38;;;;;;;12.60;100.00;99265.19;4841072;29;20144;-90
2023/05/16 03:16:49;;;;;;;0.22;0.20;;;;;;;12.66;100.00;99282.03;4818106;29;20128;-91
2023/05/16 03:19:15;;;;;;;0.10;0.10;;;;;;;12.75;100.00;99298.69;4825536;29;20096;-93
2023/05/16 03:21:40;;;;;;;0.00;0.00;;;;;;;12.64;100.00;99290.84;4837342;29;20098;-92
2023/05/16 03:24:06;;;;;;;0.00;0.00;;;;;;;12.67;100.00;99295.47;4826042;29;20053;-91
2023/05/16 03:26:34;;;;;;;0.00;0.00;;;;;;;12.75;100.00;99316.16;4853984;29;20034;-91
2023/05/16 03:28:59;;;;;;;9.18;0.55;;;;;;;12.67;100.00;99312.16;4837955;29;20588;-91
2023/05/16 03:31:25;;;;;;;0.10;0.10;;;;;;;12.78;100.00;99328.38;4847948;29;20407;-91
2023/05/16 03:33:50;;;;;;;0.00;0.00;;;;;;;12.71;100.00;99320.34;4843933;29;20042;-90
2023/05/16 03:36:16;;;;;;;0.00;0.00;;;;;;;12.68;100.00;99304.59;4845231;29;20518;-91
2023/05/16 03:38:42;;;;;;;0.47;0.20;;;;;;;12.61;100.00;99294.56;4829771;29;20510;-91
2023/05/16 03:41:07;;;;;;;0.35;0.35;;;;;;;12.64;100.00;99299.19;4834284;29;20085;-92
2023/05/16 03:43:33;;;;;;;0.35;0.30;;;;;;;12.58;100.00;99303.84;4825717;29;20143;-91
2023/05/16 03:46:00;;;;;;;0.30;0.17;;;;;;;12.65;100.00;99306.31;4830101;29;20669;-91
2023/05/16 03:48:26;;;;;;;0.13;0.13;;;;;;;12.59;100.00;99291.47;4848811;29;20049;-91
2023/05/16 03:50:51;;;;;;;0.00;0.00;;;;;;;12.61;100.00;99300.13;4824183;29;20410;-91
2023/05/16 03:53:17;;;;;;;0.00;0.00;;;;;;;12.62;100.00;99307.22;4837384;29;20573;-91
2023/05/16 03:55:42;;;;;;;0.08;0.08;;;;;;;12.53;100.00;99304.50;4816837;29;20042;-91
2023/05/16 03:58:08;;;;;;;0.30;0.20;;;;;;;12.55;100.00;99293.66;4823985;29;20482;-92
2023/05/16 04:00:35;;;;;;;0.10;0.10;;;;;;;12.56;100.00;99286.84;4821233;29;20046;-91
2023/05/16 04:03:01;;;;;;;0.15;0.15;;;;;;;12.56;100.00;99275.72;4839819;29;20109;-92
2023/05/16 04:05:27;;;;;;;0.08;0.08;;;;;;;12.27;100.00;99236.56;4830821;29;20124;-91
2023/05/16 04:07:52;;;;;;;0.25;0.10;;;;;;;12.42;100.00;99265.25;4820044;29;20062;-92
2023/05/16 04:10:18;;;;;;;0.17;0.17;;;;;;;12.51;100.00;99268.00;4839013;29;20475;-91
2023/05/16 04:12:43;;;;;;;0.52;0.52;;;;;;;12.54;100.00;99269.84;4828719;29;20502;-92
2023/05/16 04:15:09;;;;;;;0.00;0.00;;;;;;;12.40;100.00;99245.50;4828697;29;20558;-93
2023/05/16 04:17:35;;;;;;;0.00;0.00;;;;;;;12.39;100.00;99243.94;4837158;29;20042;-92
2023/05/16 04:20:01;;;;;;;0.10;0.10;;;;;;;12.48;100.00;99268.94;4836886;29;20121;-92
2023/05/16 04:22:27;;;;;;;0.45;0.38;;;;;;;12.56;100.00;99292.41;4834983;29;20145;-92
2023/05/16 04:24:56;;;;;;;0.00;0.00;;;;;;;12.55;100.00;99299.22;4821145;29;20141;-93
2023/05/16 04:27:22;;;;;;;0.13;0.13;;;;;;;12.57;100.00;99307.88;4796252;29;20060;-92
2023/05/16 04:29:48;;;;;;;0.47;0.32;;;;;;;12.48;100.00;99296.78;4827501;29;20072;-92
2023/05/16 04:32:14;;;;;;;0.00;0.00;;;;;;;12.54;100.00;99331.03;4827277;29;20050;-93
2023/05/16 04:34:39;;;;;;;0.25;0.25;;;;;;;12.58;100.00;99353.91;4823414;29;20050;-92
2023/05/16 04:37:07;;;;;;;0.10;0.10;;;;;;;12.54;100.00;99339.38;4838085;29;20106;-92
2023/05/16 04:39:33;;;;;;;0.00;0.00;;;;;;;12.28;100.00;99288.16;4828817;29;20050;-92
2023/05/16 04:42:03;;;;;;;0.10;0.10;;;;;;;12.52;100.00;99298.16;4836895;29;20056;-93
2023/05/16 04:45:02;;;;;;;0.20;0.20;;;;;;;12.20;100.00;99245.25;4862862;29;20106;-91
2023/05/16 04:47:38;;;;;;;0.05;0.05;;;;;;;12.25;100.00;99261.28;4853010;29;20074;-92
2023/05/16 04:50:10;;;;;;;0.93;0.93;;;;;;;12.63;100.00;99326.25;4813745;29;20046;-92
2023/05/16 04:52:43;;;;;;;0.50;0.50;;;;;;;12.66;100.00;99327.31;4843027;29;20057;-91
2023/05/16 04:55:09;;;;;;;0.30;0.30;;;;;;;12.57;100.00;99291.97;4836634;29;20033;-91
2023/05/16 04:57:35;;;;;;;0.05;0.05;;;;;;;12.50;100.00;99274.81;4840339;29;20506;-92
2023/05/16 05:18:11;;;;;;;0.10;0.10;;;;;;;12.62;100.00;99279.41;593172;23;20476;-93
2023/05/16 05:21:02;;;;;;;0.32;0.30;;;;;;;12.64;100.00;99276.94;4861038;29;20049;-94
2023/05/16 05:25:57;;;;;;;0.10;0.10;;;;;;;12.62;100.00;99279.41;4930703;23;20247;-94
2023/05/16 05:28:23;;;;;;;0.10;0.10;;;;;;;12.25;100.00;99222.38;4917013;29;20063;-95
2023/05/16 05:30:51;;;;;;;0.10;0.10;;;;;;;12.23;100.00;99213.72;4913898;29;20032;-94
2023/05/16 05:33:19;;;;;;;0.10;0.10;;;;;;;12.60;100.00;99267.97;4880428;29;20048;-95
2023/05/16 05:35:45;;;;;;;0.10;0.10;;;;;;;12.23;100.00;99219.28;4908601;29;20044;-96
2023/05/16 05:38:11;;;;;;;0.20;0.20;;;;;;;12.14;100.00;99201.38;4909816;29;20047;-95
2023/05/16 05:40:36;;;;;;;0.45;0.35;;;;;;;12.18;100.00;99192.09;4892478;29;20051;-95
2023/05/16 05:43:02;;;;;;;0.73;0.73;;;;;;;12.24;100.00;99204.13;4889745;29;20410;-91
2023/05/16 05:45:28;;;;;;;0.00;0.00;;;;;;;12.21;100.00;99199.53;4927386;29;20521;-91
2023/05/16 05:47:53;;;;;;;0.32;0.32;;;;;;;12.28;100.00;99213.09;4906383;29;20060;-91
2023/05/16 05:50:19;;;;;;;0.00;0.00;;;;;;;12.09;100.00;99187.34;4874964;29;20051;-91
2023/05/16 05:52:44;;;;;;;0.30;0.30;;;;;;;12.02;100.00;99182.88;4904326;29;20043;-92
2023/05/16 05:55:10;;;;;;;1.02;0.55;;;;;;;12.18;100.00;99203.22;4901051;29;20040;-91
2023/05/16 05:57:36;;;;;;;0.32;0.30;;;;;;;12.10;100.00;99200.78;4935369;29;20490;-91
2023/05/16 06:00:01;;;;;;;0.55;0.28;;;;;;;12.09;100.00;99215.91;4915601;29;20052;-92
2023/05/16 06:02:33;;;;;;;0.13;0.13;;;;;;;12.02;100.00;99204.34;4912760;29;20052;-91
2023/05/16 06:04:59;;;;;;;0.35;0.35;;;;;;;11.88;100.00;99200.22;4894378;29;20050;-90
2023/05/16 06:07:24;;;;;;;1.85;0.70;;;;;;;11.89;100.00;99196.19;4916436;29;20040;-91
2023/05/16 06:09:50;;;;;;;0.20;0.20;;;;;;;11.97;100.00;99211.28;4912937;29;20073;-90
2023/05/16 06:12:16;;;;;;;1.35;1.02;;;;;;;12.21;100.00;99246.78;4932438;29;20062;-90
2023/05/16 06:14:41;;;;;;;1.05;0.98;;;;;;;12.02;100.00;99209.91;4917870;29;20043;-91
2023/05/16 06:17:07;;;;;;;0.50;0.50;;;;;;;12.10;100.00;99223.00;4901859;29;20315;-90
2023/05/16 06:19:33;;;;;;;0.47;0.47;;;;;;;12.05;100.00;99209.72;4915529;29;20047;-91
2023/05/16 06:21:58;;;;;;;0.30;0.30;;;;;;;12.04;100.00;99201.88;4900759;29;20118;-91
2023/05/16 06:24:24;;;;;;;0.43;0.20;;;;;;;12.17;100.00;99226.72;4914660;29;20187;-90
2023/05/16 06:26:49;;;;;;;0.25;0.25;;;;;;;12.13;100.00;99216.50;4897931;29;20115;-90
2023/05/16 06:29:16;;;;;;;0.30;0.30;;;;;;;12.21;100.00;99230.09;4931824;29;20080;-91
2023/05/16 06:31:41;;;;;;;0.30;0.30;;;;;;;12.08;100.00;99219.94;4913889;29;20080;-91
2023/05/16 06:34:07;;;;;;;0.43;0.28;;;;;;;12.11;100.00;99219.00;4932455;29;20410;-90
2023/05/16 06:36:33;;;;;;;0.30;0.30;;;;;;;12.02;100.00;99191.22;4898632;29;20048;-92
2023/05/16 06:39:00;;;;;;;0.10;0.10;;;;;;;12.13;100.00;99205.38;4901627;29;20040;-95
2023/05/16 06:41:26;;;;;;;0.90;0.90;;;;;;;12.10;100.00;99198.00;4902261;29;20123;-93
2023/05/16 06:43:51;;;;;;;0.60;0.60;;;;;;;12.26;100.00;99202.41;4913183;29;20176;-96
2023/05/16 06:46:17;;;;;;;0.17;0.17;;;;;;;12.03;100.00;99167.75;4909209;29;20046;-95
2023/05/16 07:53:43;;;;;;;1.05;0.85;;;;;;;12.21;100.00;99289.25;4873937;29;20053;-94
2023/05/16 07:56:09;;;;;;;1.38;1.27;;;;;;;12.18;100.00;99272.72;4830466;29;20454;-95
2023/05/16 07:58:36;;;;;;;0.65;0.65;;;;;;;12.01;100.00;99242.47;4841007;29;20207;-96
2023/05/16 08:01:20;;;;;;;0.10;0.10;;;;;;;11.85;100.00;99195.56;4856453;23;20063;-93
2023/05/16 08:03:46;;;;;;;0.15;0.15;;;;;;;11.78;100.00;99176.44;4854208;29;20057;-95
2023/05/16 08:06:14;;;;;;;0.15;0.15;;;;;;;11.78;100.00;99184.78;4827617;29;20037;-96
2023/05/16 08:09:00;;;;;;;0.55;0.55;;;;;;;12.25;100.00;99244.63;4845359;29;20029;-96
2023/05/16 08:11:26;;;;;;;0.63;0.52;;;;;;;12.23;100.00;99247.06;4851809;29;20053;-96
2023/05/16 08:51:34;;;;;;;0.47;0.32;;;;;;;11.63;100.00;99162.41;1347060;27;20040;-91
2023/05/16 08:54:06;;;;;;;0.40;0.40;;;;;;;11.90;100.00;99203.28;4888191;29;20064;-91
2023/05/16 08:56:33;;;;;;;0.55;0.55;;;;;;;12.00;100.00;99215.94;4869847;29;20380;-91
2023/05/16 08:59:00;;;;;;;0.00;0.00;;;;;;;11.79;100.00;99186.34;4861166;29;20410;-90
2023/05/16 09:01:26;;;;;;;2.47;0.68;;;;;;;12.03;100.00;99217.78;4862714;29;20147;-90
2023/05/16 09:03:54;;;;;;;0.13;0.13;;;;;;;11.83;100.00;99181.38;4879677;29;20419;-91
2023/05/16 09:06:20;;;;;;;1.05;1.05;;;;;;;12.08;100.00;99231.06;4860939;29;20114;-92
2023/05/16 09:08:45;;;;;;;1.20;1.10;;;;;;;11.93;100.00;99201.59;4865209;29;20076;-91
2023/05/16 09:11:11;;;;;;;0.80;0.57;;;;;;;12.04;100.00;99224.88;4863831;29;20522;-91
2023/05/16 09:13:38;;;;;;;0.68;0.68;;;;;;;11.94;100.00;99219.78;4849760;29;20052;-93
2023/05/16 09:16:14;;;;;;;0.63;0.60;;;;;;;12.00;100.00;99235.41;4860994;29;20127;-93
2023/05/16 09:18:54;;;;;;;0.47;0.45;;;;;;;11.93;100.00;99219.03;4877695;29;20045;-93
2023/05/16 09:21:20;;;;;;;0.63;0.63;;;;;;;11.90;100.00;99224.75;4878032;29;20131;-93
2023/05/16 09:23:48;;;;;;;0.00;0.00;;;;;;;12.01;100.00;99242.47;4863146;29;20047;-92
2023/05/16 09:26:14;;;;;;;0.08;0.08;;;;;;;11.72;100.00;99219.22;4867646;29;20041;-92
2023/05/16 09:28:40;;;;;;;1.23;0.95;;;;;;;12.01;100.00;99259.16;4846688;29;20151;-92
2023/05/16 09:31:25;;;;;;;0.13;0.13;;;;;;;11.99;100.00;99264.44;4861891;29;20211;-93
2023/05/16 09:34:00;;;;;;;0.82;0.82;;;;;;;11.74;100.00;99238.97;4872055;29;20056;-93
2023/05/16 09:36:26;;;;;;;1.33;1.23;;;;;;;11.74;100.00;99234.19;4878047;29;20471;-93
2023/05/16 09:38:52;;;;;;;0.77;0.60;;;;;;;11.72;100.00;99244.22;4877367;29;20040;-94
2023/05/16 09:41:17;;;;;;;0.88;0.88;;;;;;;11.74;100.00;99236.97;4854021;29;20048;-94
2023/05/16 09:43:43;;;;;;;0.90;0.65;;;;;;;11.64;100.00;99230.63;4895040;29;20113;-92
2023/05/16 10:09:35;;;;;;;0.93;0.93;;;;;;;11.81;100.00;99178.28;5094117;23;20100;-96
2023/05/16 10:12:05;;;;;;;0.00;0.00;;;;;;;11.54;100.00;99136.66;4916006;29;20137;-95
2023/05/16 10:14:36;;;;;;;0.30;0.30;;;;;;;11.48;100.00;99128.19;4873584;29;20044;-95
2023/05/16 11:14:28;;;;;;;0.43;0.43;;;;;;;12.87;100.00;99072.25;1203020;23;20064;-91
2023/05/16 11:17:11;;;;;;;0.20;0.20;;;;;;;12.49;100.00;99020.16;4878027;29;20048;-91
2023/05/16 11:19:50;;;;;;;0.43;0.30;;;;;;;12.80;100.00;99075.41;4877962;29;20087;-90
2023/05/16 11:22:19;;;;;;;0.10;0.10;;;;;;;12.80;100.00;99075.41;4860576;29;20109;-92
2023/05/16 12:10:38;;;;;;;0.60;0.60;;;;;;;13.24;100.00;99037.31;1336972;27;20496;-91
2023/05/16 12:13:06;;;;;;;0.35;0.32;;;;;;;13.26;100.00;99034.84;4863175;29;20113;-93
2023/05/16 12:15:37;;;;;;;0.00;0.00;;;;;;;13.12;100.00;99032.03;4851232;29;20127;-91
2023/05/16 12:18:08;;;;;;;0.05;0.05;;;;;;;12.88;100.00;99002.22;4848939;29;20045;-91
2023/05/16 13:49:08;;;;;;;0.00;0.00;;;;;;;12.32;100.00;98922.50;4871417;29;20665;-92
2023/05/16 13:51:34;;;;;;;0.80;0.47;;;;;;;12.38;100.00;98942.03;4875643;29;20158;-92
2023/05/16 13:53:59;;;;;;;0.15;0.15;;;;;;;12.42;100.00;98943.41;4850858;29;20131;-92
2023/05/16 13:56:25;;;;;;;0.30;0.30;;;;;;;12.47;100.00;98941.97;4844513;29;20033;-92
2023/05/16 13:58:51;;;;;;;0.25;0.25;;;;;;;12.38;100.00;98925.34;4874226;29;20045;-91
2023/05/16 14:01:28;;;;;;;0.52;0.52;;;;;;;12.48;100.00;98901.81;4874578;29;20504;-93
2023/05/16 14:04:13;;;;;;;0.15;0.15;;;;;;;12.25;100.00;98874.81;4845359;29;20049;-92
2023/05/16 14:06:54;;;;;;;0.20;0.20;;;;;;;12.63;100.00;98952.66;4836806;29;20041;-92
2023/05/16 14:09:34;;;;;;;0.20;0.20;;;;;;;12.29;100.00;98919.91;4840910;29;20060;-92
2023/05/16 14:12:06;;;;;;;1.85;0.57;;;;;;;12.21;100.00;98913.94;4849897;29;20120;-93
2023/05/16 14:14:32;;;;;;;0.35;0.35;;;;;;;12.42;100.00;98943.41;4839798;29;20051;-93
2023/05/16 14:16:58;;;;;;;0.10;0.10;;;;;;;12.36;100.00;98944.53;4860641;29;20058;-93
2023/05/16 14:19:24;;;;;;;0.47;0.47;;;;;;;12.38;100.00;98953.94;4841101;29;20046;-92
2023/05/16 14:21:50;;;;;;;0.20;0.20;;;;;;;12.11;100.00;98913.22;4856403;29;20248;-92
2023/05/16 14:24:16;;;;;;;0.20;0.20;;;;;;;12.32;100.00;98943.97;4856030;29;20488;-92
2023/05/16 14:26:41;;;;;;;0.38;0.38;;;;;;;12.22;100.00;98925.78;4851913;29;20445;-92
2023/05/16 14:29:07;;;;;;;0.28;0.28;;;;;;;12.37;100.00;98946.09;4833308;29;20069;-91
2023/05/16 14:31:35;;;;;;;0.90;0.90;;;;;;;12.10;100.00;98916.47;4838779;29;20070;-92
2023/05/16 14:34:01;;;;;;;0.35;0.35;;;;;;;12.36;100.00;98950.09;4839449;29;20065;-92
2023/05/16 14:36:30;;;;;;;0.20;0.20;;;;;;;12.27;100.00;98936.28;4838456;29;20069;-93
2023/05/16 14:38:56;;;;;;;2.70;1.50;;;;;;;12.03;100.00;98903.72;4836266;29;20511;-92
2023/05/16 14:41:22;;;;;;;0.10;0.10;;;;;;;12.21;100.00;98932.63;4861474;29;20078;-92
2023/05/16 14:43:48;;;;;;;0.28;0.28;;;;;;;12.36;100.00;98955.66;4838541;29;20045;-92
2023/05/16 14:46:14;;;;;;;0.52;0.52;;;;;;;12.14;100.00;98917.81;4854433;29;20516;-92
2023/05/16 14:49:00;;;;;;;0.38;0.38;;;;;;;12.49;100.00;98956.19;4846129;29;20045;-92
2023/05/16 14:51:26;;;;;;;0.50;0.47;;;;;;;12.43;100.00;98949.75;4847357;29;20132;-91
2023/05/16 14:53:54;;;;;;;0.25;0.25;;;;;;;12.46;100.00;98965.47;4873688;29;20497;-91
2023/05/16 14:56:25;;;;;;;0.50;0.50;;;;;;;12.46;100.00;98952.34;4841349;29;20609;-92
2023/05/16 14:58:54;;;;;;;0.65;0.60;;;;;;;12.30;100.00;98938.88;4841373;29;20501;-92
2023/05/16 15:01:20;;;;;;;0.80;0.80;;;;;;;12.18;100.00;98928.75;4842694;29;20049;-91
2023/05/16 15:03:48;;;;;;;0.52;0.35;;;;;;;12.46;100.00;98973.81;4846898;29;20041;-91
2023/05/16 15:06:13;;;;;;;1.00;0.57;;;;;;;12.12;100.00;98914.00;4839393;29;20053;-91
2023/05/16 15:08:39;;;;;;;4.13;1.83;;;;;;;12.09;100.00;98904.56;4852120;29;20045;-91
2023/05/16 15:11:05;;;;;;;0.50;0.50;;;;;;;12.28;100.00;98941.38;4844291;29;20081;-91
2023/05/16 15:13:38;;;;;;;0.28;0.28;;;;;;;12.47;100.00;98972.56;4838286;29;20050;-93
2023/05/16 15:16:06;;;;;;;0.10;0.10;;;;;;;12.35;100.00;98946.56;4828272;29;20046;-91
2023/05/16 15:18:32;;;;;;;0.52;0.52;;;;;;;12.13;100.00;98909.97;4858033;29;20860;-91
2023/05/16 15:20:58;;;;;;;0.35;0.35;;;;;;;12.29;100.00;98923.44;4833818;29;20051;-91
2023/05/16 15:23:23;;;;;;;0.22;0.15;;;;;;;12.08;100.00;98891.94;4849598;29;20486;-92
2023/05/16 15:25:52;;;;;;;0.00;0.00;;;;;;;12.02;100.00;98882.72;4852099;29;20124;-94
2023/05/16 15:28:18;;;;;;;0.35;0.32;;;;;;;12.31;100.00;98917.38;4832036;29;20046;-91
2023/05/16 15:30:43;;;;;;;0.75;0.75;;;;;;;12.22;100.00;98906.34;4843332;29;20413;-91
2023/05/16 15:33:09;;;;;;;0.55;0.55;;;;;;;12.14;100.00;98884.47;4843313;29;20069;-91
2023/05/16 15:35:35;;;;;;;34.58;1.42;;;;;;;12.09;100.00;98881.59;4845640;29;20071;-94
2023/05/16 15:38:16;;;;;;;0.38;0.38;;;;;;;12.47;100.00;98948.31;4839456;29;20049;-94
2023/05/16 15:40:49;;;;;;;0.80;0.80;;;;;;;12.34;100.00;98924.78;4839389;29;20061;-93
2023/05/16 15:43:15;;;;;;;0.50;0.45;;;;;;;12.29;100.00;98917.13;4824356;29;20041;-94
2023/05/16 15:45:48;;;;;;;0.40;0.40;;;;;;;12.27;100.00;98908.47;4837010;29;20079;-93
2023/05/16 15:48:14;;;;;;;0.13;0.13;;;;;;;12.40;100.00;98932.00;4839605;29;20193;-93
2023/05/16 15:50:42;;;;;;;0.95;0.82;;;;;;;12.19;100.00;98887.84;4832969;29;20110;-92
2023/05/16 15:53:08;;;;;;;0.50;0.50;;;;;;;12.39;100.00;98915.78;4826830;29;20033;-90
2023/05/16 15:55:34;;;;;;;0.20;0.20;;;;;;;12.51;100.00;98943.34;4831445;29;20526;-91
2023/05/16 15:57:59;;;;;;;0.47;0.47;;;;;;;12.38;100.00;98922.56;4836149;29;20488;-91
2023/05/16 16:00:25;;;;;;;0.65;0.47;;;;;;;12.24;100.00;98899.06;4854865;29;20647;-92
2023/05/16 16:02:51;;;;;;;0.20;0.10;;;;;;;12.37;100.00;98907.94;4859195;29;20570;-91
2023/05/16 16:05:17;;;;;;;1.08;0.95;;;;;;;12.19;100.00;98885.06;4852601;29;20070;-90
2023/05/16 16:07:42;;;;;;;0.47;0.47;;;;;;;12.43;100.00;98922.69;4859812;29;20137;-91
2023/05/16 16:10:08;;;;;;;1.05;1.02;;;;;;;12.37;100.00;98907.16;4856264;29;20534;-91
2023/05/16 16:12:35;;;;;;;0.52;0.52;;;;;;;12.43;100.00;98927.50;4843604;29;20041;-92
2023/05/16 16:15:05;;;;;;;0.40;0.28;;;;;;;12.25;100.00;98933.22;4850313;29;20044;-92
2023/05/16 16:17:31;;;;;;;0.93;0.68;;;;;;;12.28;100.00;98940.59;4847598;29;20072;-91
2023/05/16 16:19:57;;;;;;;2.25;0.57;;;;;;;12.36;100.00;98950.09;4867842;29;20132;-90
2023/05/16 16:22:22;;;;;;;1.33;1.15;;;;;;;12.01;100.00;98897.09;4861000;29;20079;-91
2023/05/16 16:24:48;;;;;;;5.07;0.73;;;;;;;12.08;100.00;98938.41;4846375;29;20404;-91
2023/05/16 16:27:14;;;;;;;0.28;0.28;;;;;;;12.12;100.00;98966.81;4843922;29;20069;-91
2023/05/16 16:29:39;;;;;;;0.15;0.15;;;;;;;11.97;100.00;98913.91;4828721;29;20053;-90
2023/05/16 16:32:05;;;;;;;0.65;0.55;;;;;;;12.07;100.00;98929.31;4849774;29;20053;-91
2023/05/16 16:34:31;;;;;;;0.20;0.20;;;;;;;12.04;100.00;98924.72;4839860;29;20046;-92
2023/05/16 16:36:57;;;;;;;0.75;0.75;;;;;;;12.07;100.00;98934.88;4834931;29;20042;-91
2023/05/16 16:39:24;;;;;;;1.10;1.00;;;;;;;11.79;100.00;98908.50;4840572;29;20433;-91
2023/05/16 16:41:50;;;;;;;0.30;0.30;;;;;;;11.80;100.00;98915.59;4861783;29;21524;-90
2023/05/16 16:44:16;;;;;;;0.32;0.32;;;;;;;11.87;100.00;98922.81;4854380;29;20063;-90
2023/05/16 16:46:41;;;;;;;0.25;0.25;;;;;;;11.66;100.00;98888.47;4855271;29;20491;-91
2023/05/16 16:49:07;;;;;;;0.00;0.00;;;;;;;11.88;100.00;98916.78;4844658;29;20527;-90
2023/05/16 16:51:33;;;;;;;0.20;0.10;;;;;;;11.88;100.00;98907.69;4856296;29;20526;-92
2023/05/16 16:53:59;;;;;;;0.00;0.00;;;;;;;11.77;100.00;98872.06;4836086;29;20425;-96
2023/05/16 16:56:26;;;;;;;0.22;0.08;;;;;;;11.77;100.00;98871.31;4837185;29;20503;-96
2023/05/16 16:58:53;;;;;;;0.10;0.10;;;;;;;11.75;100.00;98871.03;4873050;29;20036;-96
2023/05/16 17:01:22;;;;;;;0.00;0.00;;;;;;;12.08;100.00;98908.63;4865877;29;20057;-96
2023/05/16 17:03:52;;;;;;;0.00;0.00;;;;;;;11.67;100.00;98831.69;4863491;29;20049;-96
2023/05/16 17:25:13;;;;;;;0.10;0.10;;;;;;;11.87;100.00;98931.91;3273863;27;20515;-92
2023/05/16 17:27:40;;;;;;;0.55;0.52;;;;;;;12.04;100.00;98951.72;4876152;29;20071;-91
2023/05/16 17:30:07;;;;;;;0.03;0.03;;;;;;;12.35;100.00;99010.50;4909918;29;20048;-91
2023/05/16 17:32:33;;;;;;;0.00;0.00;;;;;;;12.23;100.00;98991.28;4890624;29;20043;-91